Time;durP1;ratioP1;P1;durP2;ratioP2;P2;SDS_P1;SDS_P2;PMS_P1;PMS_P2;Temp;Humidity;BMP_temperature;BMP_pressure;BME280_temperature;BME280_humidity;BME280_pressure;Samples;Min_cycle;Max_cycle;Signal;HPM_P1;HPM_P2
2022/09/21 17:55:58;;;;;;;4.15;2.72;;;;;;;12.23;61.13;99819.88;5144109;28;20036;-72
2022/09/21 17:58:39;;;;;;;5.35;3.10;;;;;;;12.25;60.30;99817.97;5143808;27;20055;-71
2022/09/21 18:01:12;;;;;;;7.32;2.72;;;;;;;12.33;62.68;99821.94;5142792;28;20261;-72
2022/09/21 18:03:41;;;;;;;4.25;2.85;;;;;;;12.37;60.98;99822.63;5143719;27;20059;-72
2022/09/21 18:06:09;;;;;;;6.60;3.90;;;;;;;12.42;61.83;99816.09;5142283;28;20055;-72
2022/09/21 18:08:39;;;;;;;6.15;3.25;;;;;;;12.46;61.68;99828.28;5143429;27;20051;-73
2022/09/21 18:11:20;;;;;;;5.68;3.53;;;;;;;12.52;60.12;99816.44;5143340;27;20058;-71
2022/09/21 18:14:03;;;;;;;4.03;3.10;;;;;;;12.57;60.06;99811.72;5143673;27;20051;-71
2022/09/21 18:16:39;;;;;;;4.75;3.35;;;;;;;12.58;60.08;99817.91;5143614;27;20060;-70
2022/09/21 18:19:22;;;;;;;4.07;2.50;;;;;;;12.59;58.79;99811.66;5143597;28;20039;-71
2022/09/21 18:21:55;;;;;;;4.07;3.17;;;;;;;12.45;60.72;99791.16;5142800;28;20085;-71
2022/09/21 18:24:27;;;;;;;3.50;2.90;;;;;;;12.62;60.02;99819.44;5143350;27;20062;-71
2022/09/21 18:26:56;;;;;;;3.92;2.72;;;;;;;12.27;60.69;99774.44;5143415;27;20227;-70
2022/09/21 18:29:29;;;;;;;3.47;2.65;;;;;;;12.66;61.54;99831.63;5143218;27;20074;-72
2022/09/21 18:32:14;;;;;;;4.43;2.85;;;;;;;12.57;58.47;99830.34;5143109;28;20043;-70
2022/09/21 18:34:59;;;;;;;4.28;2.90;;;;;;;12.59;58.27;99830.25;5143272;27;20066;-72
2022/09/21 18:37:37;;;;;;;5.38;2.78;;;;;;;12.57;58.82;99829.50;5142763;27;20055;-73
2022/09/21 18:40:20;;;;;;;4.40;3.08;;;;;;;12.57;58.49;99838.31;5176520;27;20076;-71
2022/09/21 18:42:54;;;;;;;4.35;2.95;;;;;;;12.57;59.50;99835.66;5142235;27;20315;-71
2022/09/21 18:45:26;;;;;;;4.22;2.60;;;;;;;12.55;60.78;99832.22;5142693;27;20055;-72
2022/09/21 18:48:12;;;;;;;8.48;5.20;;;;;;;12.54;58.66;99837.63;5142951;27;20108;-72
2022/09/21 18:50:46;;;;;;;7.35;5.35;;;;;;;12.45;59.97;99812.41;5142583;27;20056;-73
2022/09/21 18:53:23;;;;;;;5.35;2.95;;;;;;;12.55;58.48;99826.91;5142050;27;20095;-71
2022/09/21 18:55:52;;;;;;;4.57;2.70;;;;;;;12.54;58.86;99838.50;5142832;27;20329;-71
2022/09/21 18:58:20;;;;;;;4.40;3.15;;;;;;;12.50;60.14;99834.28;5142338;27;20067;-72
2022/09/21 19:00:48;;;;;;;4.78;3.38;;;;;;;12.49;60.36;99837.88;5142328;27;20055;-71
2022/09/21 19:03:16;;;;;;;4.57;3.53;;;;;;;12.37;59.77;99820.81;5135018;27;20369;-71
2022/09/21 19:05:53;;;;;;;3.92;2.55;;;;;;;12.34;59.99;99807.69;5128303;28;20055;-72
2022/09/21 19:08:29;;;;;;;4.30;2.67;;;;;;;12.49;58.19;99845.88;5128228;28;20059;-71
2022/09/21 19:11:09;;;;;;;3.75;2.65;;;;;;;12.40;58.09;99830.44;5128291;28;20063;-71
2022/09/21 19:13:46;;;;;;;3.13;2.40;;;;;;;12.51;57.64;99851.97;5128336;28;20320;-72
2022/09/21 19:16:23;;;;;;;5.07;3.38;;;;;;;12.51;57.42;99852.81;5128420;28;20112;-72
2022/09/21 19:19:01;;;;;;;6.22;4.50;;;;;;;12.52;57.87;99856.34;5128450;28;20104;-72
2022/09/21 19:21:37;;;;;;;5.55;3.50;;;;;;;12.52;57.88;99857.19;5128249;27;20093;-72
2022/09/21 19:24:14;;;;;;;4.70;2.67;;;;;;;12.04;58.21;99788.94;5128676;27;20113;-72
2022/09/21 19:26:49;;;;;;;3.67;2.30;;;;;;;12.53;57.17;99850.06;5128918;28;20108;-72
2022/09/21 19:29:39;;;;;;;6.68;2.88;;;;;;;12.48;56.79;99854.78;5128376;28;20120;-72
2022/09/21 19:32:15;;;;;;;4.28;2.65;;;;;;;12.47;56.96;99853.94;5127914;28;20056;-72
2022/09/21 19:34:43;;;;;;;4.40;2.78;;;;;;;12.45;57.81;99852.28;5127799;28;20059;-72
2022/09/21 19:37:11;;;;;;;3.65;2.53;;;;;;;12.43;58.74;99857.69;5128409;27;20120;-72
2022/09/21 19:39:38;;;;;;;4.72;3.30;;;;;;;12.45;58.37;99854.94;5127551;28;20059;-72
2022/09/21 19:42:20;;;;;;;4.32;3.10;;;;;;;12.39;56.33;99850.84;5127972;28;20051;-72
2022/09/21 19:44:58;;;;;;;4.15;2.70;;;;;;;12.40;56.93;99855.22;5128179;28;20100;-72
2022/09/21 19:47:30;;;;;;;4.07;2.53;;;;;;;12.33;57.56;99855.63;5128152;28;20105;-72
2022/09/21 19:50:06;;;;;;;7.63;2.75;;;;;;;12.33;56.66;99852.97;5127618;27;20055;-72
2022/09/21 19:52:36;;;;;;;4.30;2.50;;;;;;;12.31;58.99;99862.81;5127394;28;20299;-72
2022/09/21 20:00:37;;;;;;;4.53;2.92;;;;;;;12.26;58.42;99851.59;5127907;28;20097;-72
2022/09/21 20:03:10;;;;;;;2.72;2.00;;;;;;;12.30;58.25;99855.78;5127583;28;20101;-72
2022/09/21 20:05:46;;;;;;;11.60;3.28;;;;;;;12.21;56.71;99858.94;5127294;28;20063;-72
2022/09/21 20:08:20;;;;;;;4.38;3.20;;;;;;;12.21;57.89;99848.31;5127430;28;20055;-72
2022/09/21 20:11:11;;;;;;;4.15;3.63;;;;;;;12.15;56.63;99862.75;5126933;28;20120;-72
2022/09/21 20:13:53;;;;;;;3.47;2.40;;;;;;;12.13;56.77;99857.53;5127119;27;20056;-72
2022/09/21 20:16:31;;;;;;;4.50;2.70;;;;;;;12.17;57.85;99859.09;5126138;28;20213;-72
2022/09/21 20:19:04;;;;;;;4.28;3.30;;;;;;;12.13;57.77;99862.84;5126265;28;20081;-72
2022/09/21 20:21:38;;;;;;;5.00;3.90;;;;;;;11.99;57.13;99844.09;5126364;28;20063;-72
2022/09/21 20:24:21;;;;;;;6.53;3.13;;;;;;;12.14;56.90;99861.03;5126345;28;20445;-72
2022/09/21 20:26:50;;;;;;;4.65;3.40;;;;;;;12.08;57.93;99869.34;5126280;28;20113;-72
2022/09/21 20:29:20;;;;;;;5.53;3.78;;;;;;;11.57;57.51;99787.00;5126497;28;20059;-72
2022/09/21 20:31:51;;;;;;;5.28;3.67;;;;;;;12.12;59.05;99866.44;5127869;28;20258;-72
2022/09/21 20:34:19;;;;;;;4.68;3.05;;;;;;;12.12;58.73;99865.56;5127456;28;20051;-72
2022/09/21 20:36:46;;;;;;;4.85;2.80;;;;;;;12.06;58.85;99863.25;5126868;28;20245;-72
2022/09/21 20:39:13;;;;;;;5.07;2.63;;;;;;;12.05;58.53;99864.19;5126351;27;20063;-72
2022/09/21 20:41:40;;;;;;;4.18;2.95;;;;;;;12.03;58.89;99871.38;5126822;28;20059;-72
2022/09/21 20:44:12;;;;;;;4.20;3.03;;;;;;;12.04;58.30;99870.44;5126858;28;20104;-72
2022/09/21 20:46:40;;;;;;;5.68;3.78;;;;;;;12.03;58.68;99868.72;5126799;28;20099;-72
2022/09/21 20:49:08;;;;;;;8.32;5.75;;;;;;;11.97;59.20;99866.34;5127246;28;20100;-72
2022/09/21 20:51:35;;;;;;;7.28;5.03;;;;;;;11.56;59.85;99809.16;5126366;28;20055;-72
2022/09/21 20:54:02;;;;;;;6.50;3.92;;;;;;;11.33;58.97;99790.06;5126135;28;20051;-72
2022/09/21 20:56:30;;;;;;;5.40;3.00;;;;;;;11.36;59.25;99789.91;5126558;28;20056;-72
2022/09/21 20:58:58;;;;;;;4.22;2.58;;;;;;;11.89;59.78;99880.91;5126718;28;20067;-72
2022/09/21 21:01:25;;;;;;;3.92;2.83;;;;;;;11.90;59.57;99884.41;5126242;28;20056;-72
2022/09/21 21:04:00;;;;;;;3.50;2.67;;;;;;;11.88;57.92;99883.63;5126479;28;20052;-72
2022/09/21 21:06:27;;;;;;;;;;;;;;;11.71;57.81;99881.84;5126872;28;20311;-72
2022/09/21 21:08:54;;;;;;;3.80;2.53;;;;;;;11.81;59.64;99876.94;5126500;28;20221;-72
2022/09/21 21:11:22;;;;;;;4.00;2.72;;;;;;;11.77;59.40;99873.56;5126383;28;20055;-72
2022/09/21 21:13:49;;;;;;;3.85;2.53;;;;;;;11.69;59.89;99874.91;5126113;28;20341;-72
2022/09/21 21:16:16;;;;;;;4.03;2.38;;;;;;;11.69;59.69;99874.91;5126268;28;20116;-72
2022/09/21 21:18:43;;;;;;;5.25;3.05;;;;;;;11.68;59.42;99862.56;5126117;28;20055;-72
2022/09/21 21:21:12;;;;;;;5.60;2.40;;;;;;;11.74;59.35;99867.56;5126003;28;20055;-72
2022/09/21 21:26:20;;;;;;;5.13;2.25;;;;;;;11.21;60.09;99808.31;5125203;28;20273;-72
2022/09/21 21:28:48;;;;;;;3.38;2.50;;;;;;;11.60;59.78;99865.63;5125744;28;20100;-72
2022/09/21 21:31:15;;;;;;;5.40;3.42;;;;;;;11.60;59.97;99862.97;5125975;28;20055;-72
2022/09/21 21:33:42;;;;;;;4.28;2.67;;;;;;;11.61;59.84;99863.81;5125995;28;20108;-72
2022/09/21 21:36:13;;;;;;;3.42;2.35;;;;;;;11.56;59.60;99853.44;5125868;28;20108;-72
2022/09/21 21:38:43;;;;;;;4.30;2.72;;;;;;;11.51;59.33;99863.44;5125643;27;20056;-72
2022/09/21 21:41:12;;;;;;;2.95;2.25;;;;;;;11.45;59.91;99863.75;5125859;28;20108;-72
2022/09/21 21:43:41;;;;;;;3.67;2.25;;;;;;;11.36;60.09;99859.75;5125852;28;20131;-72
2022/09/21 21:46:09;;;;;;;3.90;2.63;;;;;;;11.39;60.14;99856.09;5125861;28;20116;-72
2022/09/21 21:48:37;;;;;;;3.83;2.42;;;;;;;11.33;60.05;99849.28;5125941;28;20185;-72
2022/09/21 21:51:06;;;;;;;3.10;2.58;;;;;;;11.34;60.19;99861.63;5125428;28;20062;-72
2022/09/21 21:53:35;;;;;;;4.45;2.97;;;;;;;11.18;60.75;99834.16;5125441;28;20052;-72
2022/09/21 21:56:07;;;;;;;3.35;2.35;;;;;;;11.15;59.82;99823.69;5125533;28;20056;-72
2022/09/21 21:58:34;;;;;;;4.53;2.85;;;;;;;11.38;60.85;99849.06;5125500;28;20056;-72
2022/09/21 22:01:09;;;;;;;5.05;2.70;;;;;;;11.13;59.57;99807.84;5125432;28;20105;-72
2022/09/21 22:03:36;;;;;;;3.47;2.50;;;;;;;10.47;59.85;99712.13;5125971;28;20055;-72
2022/09/21 22:06:04;;;;;;;4.00;2.95;;;;;;;11.25;60.00;99854.13;5125666;28;20373;-72
2022/09/21 22:08:32;;;;;;;4.07;2.90;;;;;;;11.26;60.29;99855.84;5125418;28;20047;-72
2022/09/21 22:11:00;;;;;;;3.88;2.40;;;;;;;11.26;60.66;99849.69;5125569;28;20055;-72
2022/09/21 22:13:29;;;;;;;3.20;2.40;;;;;;;11.25;60.84;99840.88;5125563;28;20052;-72
2022/09/21 22:16:03;;;;;;;5.13;2.78;;;;;;;10.84;60.01;99787.22;5125619;28;20105;-72
2022/09/21 22:18:31;;;;;;;3.47;2.50;;;;;;;11.11;60.32;99843.34;5125722;28;20077;-72
2022/09/21 22:21:02;;;;;;;3.25;2.30;;;;;;;11.18;60.13;99844.75;5125604;28;20257;-72
2022/09/21 22:23:29;;;;;;;3.80;2.55;;;;;;;11.10;60.83;99853.09;5125356;28;20104;-72
2022/09/21 22:26:05;;;;;;;7.03;2.97;;;;;;;10.49;60.25;99747.38;5125503;28;20180;-72
2022/09/21 22:28:35;;;;;;;4.45;2.75;;;;;;;11.15;60.46;99852.88;5125119;28;20311;-72
2022/09/21 22:31:04;;;;;;;4.65;3.10;;;;;;;10.55;60.95;99755.03;5125485;28;20093;-72
2022/09/21 22:33:32;;;;;;;4.03;2.90;;;;;;;11.15;60.88;99844.91;5125272;28;20055;-72
2022/09/21 22:36:03;;;;;;;3.63;2.47;;;;;;;11.14;60.47;99843.19;5125490;28;20056;-72
2022/09/21 22:38:30;;;;;;;4.05;2.83;;;;;;;11.11;60.59;99851.31;5126864;28;20100;-72
2022/09/21 22:41:03;;;;;;;6.10;2.85;;;;;;;11.16;60.41;99842.19;5129276;27;20056;-72
2022/09/21 22:43:31;;;;;;;3.97;2.70;;;;;;;10.98;60.44;99818.38;5129023;28;20220;-71
2022/09/21 22:45:59;;;;;;;3.67;2.70;;;;;;;11.10;60.41;99831.00;5128954;28;20112;-72
2022/09/21 22:48:27;;;;;;;4.47;2.60;;;;;;;11.11;60.53;99833.59;5129191;28;20223;-72
2022/09/21 22:50:55;;;;;;;3.72;2.60;;;;;;;11.13;61.08;99828.22;5128888;28;20096;-72
2022/09/21 22:53:24;;;;;;;4.68;3.17;;;;;;;10.72;61.43;99756.84;5129055;28;20112;-72
2022/09/21 22:56:01;;;;;;;7.85;2.83;;;;;;;11.15;60.21;99816.59;5129013;28;20055;-72
2022/09/21 22:58:29;;;;;;;3.80;2.72;;;;;;;11.17;60.88;99829.78;5129338;28;20108;-72
2022/09/21 23:01:08;;;;;;;4.13;3.00;;;;;;;11.20;60.18;99822.53;5128853;28;20055;-72
2022/09/21 23:03:35;;;;;;;3.60;2.42;;;;;;;11.19;61.07;99815.50;5128743;28;20109;-72
2022/09/21 23:06:04;;;;;;;3.10;2.42;;;;;;;11.24;60.96;99812.63;5128817;28;20052;-72
2022/09/21 23:08:31;;;;;;;5.78;3.33;;;;;;;11.24;60.91;99817.91;5128524;28;20052;-72
2022/09/21 23:11:06;;;;;;;3.30;2.40;;;;;;;10.69;60.27;99727.84;5128700;28;20242;-72
2022/09/21 23:13:33;;;;;;;3.40;2.30;;;;;;;11.21;60.67;99820.72;5128545;28;20242;-72
2022/09/21 23:16:03;;;;;;;4.32;2.50;;;;;;;10.85;60.87;99767.72;5128647;28;20112;-72
2022/09/21 23:18:31;;;;;;;4.40;2.65;;;;;;;11.20;60.91;99832.28;5128659;28;20092;-72
2022/09/21 23:21:00;;;;;;;3.40;2.40;;;;;;;11.23;60.81;99825.03;5128576;28;20108;-72
2022/09/21 23:23:27;;;;;;;5.10;2.42;;;;;;;11.21;61.01;99818.06;5128438;27;20039;-72
2022/09/21 23:26:02;;;;;;;3.90;2.33;;;;;;;11.20;60.30;99819.88;5128136;28;20055;-72
2022/09/21 23:28:29;;;;;;;3.45;2.20;;;;;;;11.19;60.57;99820.81;5128687;28;20096;-72
2022/09/21 23:30:59;;;;;;;4.20;2.88;;;;;;;11.14;60.92;99822.84;5128346;28;20311;-72
2022/09/21 23:33:32;;;;;;;5.05;2.97;;;;;;;10.65;60.27;99738.66;5127946;28;20066;-72
2022/09/21 23:35:59;;;;;;;4.00;2.90;;;;;;;11.08;61.24;99827.59;5128000;28;20093;-72
2022/09/21 23:38:28;;;;;;;11.23;2.55;;;;;;;11.02;61.64;99818.13;5127915;27;20057;-72
2022/09/21 23:41:02;;;;;;;4.22;2.63;;;;;;;11.08;61.25;99817.84;5128138;28;20055;-72
2022/09/21 23:43:29;;;;;;;3.60;2.58;;;;;;;10.59;61.10;99739.81;5128158;28;20063;-72
2022/09/21 23:45:56;;;;;;;3.63;2.72;;;;;;;10.96;60.99;99815.78;5128234;28;20345;-72
2022/09/21 23:48:23;;;;;;;4.40;2.60;;;;;;;10.95;61.21;99813.22;5127987;28;20105;-72
2022/09/21 23:50:53;;;;;;;4.25;2.58;;;;;;;10.81;61.10;99798.84;5126768;28;20051;-73
2022/09/21 23:53:21;;;;;;;4.30;2.70;;;;;;;10.90;61.19;99821.41;5126969;28;20063;-72
2022/09/21 23:55:48;;;;;;;3.63;2.85;;;;;;;10.83;61.32;99815.53;5127845;28;20112;-72
2022/09/21 23:58:16;;;;;;;4.05;2.67;;;;;;;10.55;61.08;99788.63;5127826;28;20055;-72
